Avery, Arkansas
Current Conditions -  °F | °C
As of 5:53 AM on Saturday 25 Oct 2014 (Local Time) from KLLQ Reporting Station
Clear Clear  
Wind Chill: 58°   Ceiling: Unl
Heat Index: 58°   Visibility: 10mi
Dew Point: 53°   Wind: 6mph
Humidity: 84%   Direction: 270°W
Pressure: 30.12"   Gusts: NA
Location:  33.9283°N, 91.468°W
Report Text: KLLQ 251053Z AUTO 27005KT 10SM CLR 14/12 A3012 RMK AO2 SLP198 T01440117
Loading
Personal Weather Stations






























Interactive Weather Map New forecast layout! Learn more

10-Day Weather Forecast

Advertisements
Track Severe Weather on mobile